createdAt,value
2018-02-11T00:00:47.402Z,1004.04
2018-02-11T00:01:47.440Z,1003.95
2018-02-11T00:02:47.457Z,1003.93
2018-02-11T00:03:47.485Z,1003.95
2018-02-11T00:04:47.512Z,1003.94
2018-02-11T00:05:47.540Z,1003.89
2018-02-11T00:06:47.568Z,1003.90
2018-02-11T00:07:47.595Z,1003.88
2018-02-11T00:08:47.624Z,1003.88
2018-02-11T00:09:47.651Z,1003.86
2018-02-11T00:10:47.678Z,1003.83
2018-02-11T00:11:47.706Z,1003.86
2018-02-11T00:12:47.734Z,1003.85
2018-02-11T00:13:47.761Z,1003.86
2018-02-11T00:14:47.795Z,1003.83
2018-02-11T00:15:47.817Z,1003.83
2018-02-11T00:16:47.845Z,1003.84
2018-02-11T00:17:47.872Z,1003.82
2018-02-11T00:18:47.900Z,1003.81
2018-02-11T00:19:47.928Z,1003.79
2018-02-11T00:20:47.956Z,1003.77
2018-02-11T00:21:47.983Z,1003.77
2018-02-11T00:22:48.011Z,1003.77
2018-02-11T00:23:48.061Z,1003.75
2018-02-11T00:24:48.067Z,1003.76
2018-02-11T00:25:48.094Z,1003.76
2018-02-11T00:26:48.122Z,1003.73
2018-02-11T00:27:48.151Z,1003.74
2018-02-11T00:28:48.178Z,1003.77
2018-02-11T00:29:48.205Z,1003.79
2018-02-11T00:30:48.233Z,1003.78
2018-02-11T00:31:48.261Z,1003.80
2018-02-11T00:32:48.289Z,1003.75
2018-02-11T00:33:48.315Z,1003.78
2018-02-11T00:34:48.344Z,1003.73
2018-02-11T00:35:48.371Z,1003.73
2018-02-11T00:36:48.399Z,1003.75
2018-02-11T00:37:48.426Z,1003.75
2018-02-11T00:38:48.454Z,1003.72
2018-02-11T00:39:48.482Z,1003.68
2018-02-11T00:40:48.510Z,1003.69
2018-02-11T00:41:48.537Z,1003.66
2018-02-11T00:42:48.568Z,1003.66
2018-02-11T00:43:48.596Z,1003.66
2018-02-11T00:44:48.621Z,1003.61
2018-02-11T00:45:48.657Z,1003.63
2018-02-11T00:46:48.676Z,1003.60
2018-02-11T00:47:48.704Z,1003.60
2018-02-11T00:48:48.732Z,1003.58
2018-02-11T00:49:48.759Z,1003.57
2018-02-11T00:50:48.787Z,1003.57
2018-02-11T00:51:48.816Z,1003.60
2018-02-11T00:52:48.843Z,1003.55
2018-02-11T00:53:48.870Z,1003.57
2018-02-11T00:54:48.899Z,1003.53
2018-02-11T00:55:48.926Z,1003.55
2018-02-11T00:56:48.958Z,1003.53
2018-02-11T00:57:48.981Z,1003.53
2018-02-11T00:58:49.009Z,1003.52
2018-02-11T00:59:49.038Z,1003.50
2018-02-11T01:00:49.065Z,1003.43
2018-02-11T01:01:49.130Z,1003.49
2018-02-11T01:02:49.120Z,1003.48
2018-02-11T01:03:49.148Z,1003.46
2018-02-11T01:04:49.176Z,1003.44
2018-02-11T01:05:49.203Z,1003.44
2018-02-11T01:06:49.231Z,1003.45
2018-02-11T01:07:49.261Z,1003.42
2018-02-11T01:08:49.287Z,1003.46
2018-02-11T01:09:49.313Z,1003.43
2018-02-11T01:10:49.342Z,1003.41
2018-02-11T01:11:49.395Z,1003.40
2018-02-11T01:12:49.398Z,1003.35
2018-02-11T01:13:49.425Z,1003.38
2018-02-11T01:14:49.454Z,1003.37
2018-02-11T01:15:49.480Z,1003.36
2018-02-11T01:16:49.508Z,1003.40
2018-02-11T01:17:49.535Z,1003.37
2018-02-11T01:18:49.564Z,1003.38
2018-02-11T01:19:49.591Z,1003.39
2018-02-11T01:20:49.619Z,1003.36
2018-02-11T01:21:49.646Z,1003.34
2018-02-11T01:22:49.674Z,1003.36
2018-02-11T01:23:49.703Z,1003.34
2018-02-11T01:24:49.731Z,1003.32
2018-02-11T01:25:49.759Z,1003.29
2018-02-11T01:26:49.786Z,1003.29
2018-02-11T01:27:49.813Z,1003.26
2018-02-11T01:28:49.841Z,1003.29
2018-02-11T01:29:49.868Z,1003.29
2018-02-11T01:30:49.910Z,1003.24
2018-02-11T01:31:49.947Z,1003.22
2018-02-11T01:32:49.952Z,1003.25
2018-02-11T01:33:50.004Z,1003.23
2018-02-11T01:34:50.007Z,1003.25
2018-02-11T01:35:50.036Z,1003.28
2018-02-11T01:36:50.063Z,1003.29
2018-02-11T01:37:50.090Z,1003.24
2018-02-11T01:38:50.141Z,1003.27
2018-02-11T01:39:50.146Z,1003.25
2018-02-11T01:40:50.174Z,1003.22
2018-02-11T01:41:50.200Z,1003.19
2018-02-11T01:42:50.229Z,1003.18
2018-02-11T01:43:50.257Z,1003.17
2018-02-11T01:44:50.284Z,1003.15
2018-02-11T01:45:50.324Z,1003.16
2018-02-11T01:46:50.339Z,1003.14
2018-02-11T01:47:50.368Z,1003.18
2018-02-11T01:48:50.396Z,1003.15
2018-02-11T01:49:50.423Z,1003.16
2018-02-11T01:50:50.451Z,1003.14
2018-02-11T01:51:50.479Z,1003.16
2018-02-11T01:52:50.506Z,1003.14
2018-02-11T01:53:50.533Z,1003.14
2018-02-11T01:54:50.568Z,1003.08
2018-02-11T01:55:50.630Z,1003.08
2018-02-11T01:56:50.617Z,1003.11
2018-02-11T01:57:50.647Z,1003.09
2018-02-11T01:58:50.675Z,1003.06
2018-02-11T01:59:50.714Z,1003.05
2018-02-11T02:00:50.729Z,1003.04
2018-02-11T02:01:50.755Z,1003.01
2018-02-11T02:02:50.786Z,1002.97
2018-02-11T02:03:50.811Z,1002.96
2018-02-11T02:04:50.860Z,1002.95
2018-02-11T02:05:50.865Z,1002.92
2018-02-11T02:06:50.896Z,1002.95
2018-02-11T02:07:50.922Z,1002.95
2018-02-11T02:08:50.950Z,1002.95
2018-02-11T02:09:50.976Z,1002.93
2018-02-11T02:10:51.005Z,1002.92
2018-02-11T02:11:51.036Z,1002.94
2018-02-11T02:12:51.061Z,1002.92
2018-02-11T02:13:51.089Z,1002.92
2018-02-11T02:14:51.118Z,1002.93
2018-02-11T02:15:51.143Z,1002.90
2018-02-11T02:16:51.172Z,1002.93
2018-02-11T02:17:51.199Z,1002.88
2018-02-11T02:18:51.226Z,1002.91
2018-02-11T02:19:51.254Z,1002.94
2018-02-11T02:20:51.282Z,1002.92
2018-02-11T02:21:51.309Z,1002.91
2018-02-11T02:22:51.337Z,1002.91
2018-02-11T02:23:51.366Z,1002.90
2018-02-11T02:24:51.393Z,1002.91
2018-02-11T02:25:51.439Z,1002.91
2018-02-11T02:26:51.448Z,1002.89
2018-02-11T02:27:51.476Z,1002.87
2018-02-11T02:28:51.504Z,1002.84
2018-02-11T02:29:51.531Z,1002.87
2018-02-11T02:30:51.559Z,1002.84
2018-02-11T02:31:51.587Z,1002.83
2018-02-11T02:32:51.674Z,1002.82
2018-02-11T02:33:51.648Z,1002.80
2018-02-11T02:34:51.669Z,1002.79
2018-02-11T02:35:51.698Z,1002.76
2018-02-11T02:36:51.726Z,1002.78
2018-02-11T02:37:51.753Z,1002.76
2018-02-11T02:38:51.781Z,1002.75
2018-02-11T02:39:51.809Z,1002.76
2018-02-11T02:40:51.837Z,1002.75
2018-02-11T02:41:51.864Z,1002.79
2018-02-11T02:42:51.898Z,1002.77
2018-02-11T02:43:51.919Z,1002.76
2018-02-11T02:44:51.955Z,1002.79
2018-02-11T02:45:51.974Z,1002.78
2018-02-11T02:46:52.003Z,1002.77
2018-02-11T02:47:52.030Z,1002.77
2018-02-11T02:48:52.059Z,1002.77
2018-02-11T02:49:52.085Z,1002.77
2018-02-11T02:50:52.117Z,1002.76
2018-02-11T02:51:52.143Z,1002.74
2018-02-11T02:52:52.170Z,1002.78
2018-02-11T02:53:52.196Z,1002.77
2018-02-11T02:54:52.224Z,1002.78
2018-02-11T02:55:52.251Z,1002.78
2018-02-11T02:56:52.280Z,1002.76
2018-02-11T02:57:52.333Z,1002.74
2018-02-11T02:58:52.334Z,1002.74
2018-02-11T02:59:52.363Z,1002.70
2018-02-11T03:00:52.401Z,1002.71
2018-02-11T03:01:52.417Z,1002.74
2018-02-11T03:02:52.445Z,1002.70
2018-02-11T03:03:52.474Z,1002.71
2018-02-11T03:04:52.501Z,1002.65
2018-02-11T03:05:52.528Z,1002.64
2018-02-11T03:06:52.555Z,1002.71
2018-02-11T03:07:52.584Z,1002.70
2018-02-11T03:08:52.612Z,1002.70
2018-02-11T03:09:52.719Z,1002.65
2018-02-11T03:10:52.666Z,1002.70
2018-02-11T03:11:52.694Z,1002.66
2018-02-11T03:12:52.742Z,1002.65
2018-02-11T03:13:52.749Z,1002.68
2018-02-11T03:14:52.777Z,1002.64
2018-02-11T03:15:52.806Z,1002.69
2018-02-11T03:16:52.833Z,1002.65
2018-02-11T03:17:52.861Z,1002.62
2018-02-11T03:18:52.889Z,1002.62
2018-02-11T03:19:52.916Z,1002.67
2018-02-11T03:20:52.944Z,1002.60
2018-02-11T03:21:52.971Z,1002.52
2018-02-11T03:22:52.999Z,1002.56
2018-02-11T03:23:53.027Z,1002.56
2018-02-11T03:24:53.087Z,1002.54
2018-02-11T03:25:53.082Z,1002.52
2018-02-11T03:26:53.110Z,1002.53
2018-02-11T03:27:53.138Z,1002.55
2018-02-11T03:28:53.182Z,1002.55
2018-02-11T03:29:53.194Z,1002.53
2018-02-11T03:30:53.221Z,1002.51
2018-02-11T03:31:53.269Z,1002.52
2018-02-11T03:32:53.276Z,1002.46
2018-02-11T03:33:53.304Z,1002.46
2018-02-11T03:34:53.367Z,1002.46
2018-02-11T03:35:53.360Z,1002.42
2018-02-11T03:36:53.388Z,1002.43
2018-02-11T03:37:53.414Z,1002.45
2018-02-11T03:38:53.444Z,1002.44
2018-02-11T03:39:53.470Z,1002.44
2018-02-11T03:40:53.498Z,1002.42
2018-02-11T03:41:53.525Z,1002.42
2018-02-11T03:42:53.553Z,1002.41
2018-02-11T03:43:53.580Z,1002.42
2018-02-11T03:44:53.609Z,1002.41
2018-02-11T03:45:53.635Z,1002.36
2018-02-11T03:46:53.664Z,1002.34
2018-02-11T03:47:53.692Z,1002.42
2018-02-11T03:48:53.719Z,1002.37
2018-02-11T03:49:53.746Z,1002.41
2018-02-11T03:50:53.774Z,1002.40
2018-02-11T03:51:53.804Z,1002.39
2018-02-11T03:52:53.830Z,1002.39
2018-02-11T03:53:53.856Z,1002.37
2018-02-11T03:54:53.885Z,1002.38
2018-02-11T03:55:53.912Z,1002.39
2018-02-11T03:56:53.944Z,1002.38
2018-02-11T03:57:53.973Z,1002.36
2018-02-11T03:58:53.994Z,1002.38
2018-02-11T03:59:54.023Z,1002.43
2018-02-11T04:00:54.051Z,1002.43
2018-02-11T04:01:54.078Z,1002.39
2018-02-11T04:02:54.111Z,1002.41
2018-02-11T04:03:54.156Z,1002.39
2018-02-11T04:04:54.176Z,1002.42
2018-02-11T04:05:54.189Z,1002.42
2018-02-11T04:06:54.216Z,1002.44
2018-02-11T04:07:54.244Z,1002.45
2018-02-11T04:08:54.272Z,1002.42
2018-02-11T04:09:54.301Z,1002.45
2018-02-11T04:10:54.326Z,1002.42
2018-02-11T04:11:54.354Z,1002.44
2018-02-11T04:12:54.382Z,1002.41
2018-02-11T04:13:54.438Z,1002.40
2018-02-11T04:14:54.436Z,1002.43
2018-02-11T04:15:54.464Z,1002.38
2018-02-11T04:16:54.492Z,1002.43
2018-02-11T04:17:54.519Z,1002.43
2018-02-11T04:18:54.547Z,1002.45
2018-02-11T04:19:54.574Z,1002.43
2018-02-11T04:20:54.601Z,1002.46
2018-02-11T04:21:54.628Z,1002.39
2018-02-11T04:22:54.656Z,1002.38
2018-02-11T04:23:54.687Z,1002.36
2018-02-11T04:24:54.712Z,1002.32
2018-02-11T04:25:54.739Z,1002.30
2018-02-11T04:26:54.766Z,1002.30
2018-02-11T04:27:54.794Z,1002.28
2018-02-11T04:28:54.822Z,1002.25
2018-02-11T04:29:54.848Z,1002.23
2018-02-11T04:30:54.877Z,1002.16
2018-02-11T04:31:54.922Z,1002.18
2018-02-11T04:32:54.932Z,1002.16
2018-02-11T04:33:54.959Z,1002.18
2018-02-11T04:34:55.016Z,1002.17
2018-02-11T04:35:55.014Z,1002.20
2018-02-11T04:36:55.044Z,1002.17
2018-02-11T04:37:55.069Z,1002.23
2018-02-11T04:38:55.096Z,1002.18
2018-02-11T04:39:55.124Z,1002.18
2018-02-11T04:40:55.152Z,1002.23
2018-02-11T04:41:55.181Z,1002.19
2018-02-11T04:42:55.206Z,1002.19
2018-02-11T04:43:55.234Z,1002.16
2018-02-11T04:44:55.262Z,1002.16
2018-02-11T04:45:55.290Z,1002.11
2018-02-11T04:46:55.317Z,1002.17
2018-02-11T04:47:55.344Z,1002.18
2018-02-11T04:48:55.372Z,1002.18
2018-02-11T04:49:55.433Z,1002.22
2018-02-11T04:50:55.427Z,1002.17
2018-02-11T04:51:55.455Z,1002.15
2018-02-11T04:52:55.482Z,1002.20
2018-02-11T04:53:55.509Z,1002.21
2018-02-11T04:54:55.536Z,1002.22
2018-02-11T04:55:55.563Z,1002.15
2018-02-11T04:56:55.593Z,1002.17
2018-02-11T04:57:55.619Z,1002.18
2018-02-11T04:58:55.646Z,1002.20
2018-02-11T04:59:55.674Z,1002.18
2018-02-11T05:00:55.702Z,1002.16
2018-02-11T05:01:55.729Z,1002.15
2018-02-11T05:02:55.757Z,1002.14
2018-02-11T05:03:55.784Z,1002.13
2018-02-11T05:04:55.811Z,1002.12
2018-02-11T05:05:55.844Z,1002.09
2018-02-11T05:06:55.867Z,1002.09
2018-02-11T05:07:55.894Z,1002.10
2018-02-11T05:08:55.922Z,1002.09
2018-02-11T05:09:55.949Z,1002.07
2018-02-11T05:10:55.977Z,1002.07
2018-02-11T05:11:56.004Z,1002.07
2018-02-11T05:12:56.034Z,1002.05
2018-02-11T05:13:56.059Z,1002.04
2018-02-11T05:14:56.087Z,1002.03
2018-02-11T05:15:56.115Z,1002.03
2018-02-11T05:16:56.143Z,1002.01
2018-02-11T05:17:56.179Z,1001.98
2018-02-11T05:18:56.197Z,1002.00
2018-02-11T05:19:56.225Z,1002.04
2018-02-11T05:20:56.296Z,1002.01
2018-02-11T05:21:56.294Z,1002.05
2018-02-11T05:22:56.307Z,1002.00
2018-02-11T05:23:56.361Z,1001.97
2018-02-11T05:24:56.363Z,1002.00
2018-02-11T05:25:56.389Z,1002.02
2018-02-11T05:26:56.416Z,1001.97
2018-02-11T05:27:56.445Z,1001.94
2018-02-11T05:28:56.473Z,1001.94
2018-02-11T05:29:56.500Z,1001.89
2018-02-11T05:30:56.527Z,1001.88
2018-02-11T05:31:56.554Z,1001.86
2018-02-11T05:32:56.583Z,1001.86
2018-02-11T05:33:56.641Z,1001.88
2018-02-11T05:34:56.637Z,1001.86
2018-02-11T05:35:56.665Z,1001.85
2018-02-11T05:36:56.693Z,1001.82
2018-02-11T05:37:56.719Z,1001.82
2018-02-11T05:38:56.748Z,1001.84
2018-02-11T05:39:56.788Z,1001.79
2018-02-11T05:40:56.803Z,1001.80
2018-02-11T05:41:56.830Z,1001.79
2018-02-11T05:42:56.857Z,1001.81
2018-02-11T05:43:56.885Z,1001.76
2018-02-11T05:44:56.949Z,1001.75
2018-02-11T05:45:56.963Z,1001.77
2018-02-11T05:46:56.989Z,1001.75
2018-02-11T05:47:56.995Z,1001.73
2018-02-11T05:48:57.023Z,1001.78
2018-02-11T05:49:57.050Z,1001.75
2018-02-11T05:50:57.078Z,1001.77
2018-02-11T05:51:57.107Z,1001.76
2018-02-11T05:52:57.133Z,1001.77
2018-02-11T05:53:57.160Z,1001.77
2018-02-11T05:54:57.188Z,1001.77
2018-02-11T05:55:57.216Z,1001.78
2018-02-11T05:56:57.244Z,1001.73
2018-02-11T05:57:57.303Z,1001.74
2018-02-11T05:58:57.298Z,1001.70
2018-02-11T05:59:57.326Z,1001.73
2018-02-11T06:00:57.354Z,1001.71
2018-02-11T06:01:57.385Z,1001.69
2018-02-11T06:02:57.408Z,1001.65
2018-02-11T06:03:57.435Z,1001.65
2018-02-11T06:04:57.465Z,1001.63
2018-02-11T06:05:57.490Z,1001.60
2018-02-11T06:06:57.518Z,1001.59
2018-02-11T06:07:57.586Z,1001.58
2018-02-11T06:08:57.578Z,1001.59
2018-02-11T06:09:57.601Z,1001.61
2018-02-11T06:10:57.632Z,1001.59
2018-02-11T06:11:57.657Z,1001.59
2018-02-11T06:12:57.683Z,1001.52
2018-02-11T06:13:57.711Z,1001.53
2018-02-11T06:14:57.748Z,1001.51
2018-02-11T06:15:57.768Z,1001.44
2018-02-11T06:16:57.795Z,1001.48
2018-02-11T06:17:57.822Z,1001.49
2018-02-11T06:18:57.849Z,1001.50
2018-02-11T06:19:57.876Z,1001.49
2018-02-11T06:20:57.905Z,1001.48
2018-02-11T06:21:57.931Z,1001.48
2018-02-11T06:22:57.959Z,1001.50
2018-02-11T06:23:57.987Z,1001.48
2018-02-11T06:24:58.015Z,1001.49
2018-02-11T06:25:58.042Z,1001.50
2018-02-11T06:26:58.069Z,1001.48
2018-02-11T06:27:58.097Z,1001.48
2018-02-11T06:28:58.154Z,1001.43
2018-02-11T06:29:58.152Z,1001.46
2018-02-11T06:30:58.179Z,1001.46
2018-02-11T06:31:58.208Z,1001.47
2018-02-11T06:32:58.236Z,1001.46
2018-02-11T06:33:58.282Z,1001.43
2018-02-11T06:34:58.290Z,1001.48
2018-02-11T06:35:58.317Z,1001.43
2018-02-11T06:36:58.346Z,1001.42
2018-02-11T06:37:58.374Z,1001.45
2018-02-11T06:38:58.400Z,1001.45
2018-02-11T06:39:58.428Z,1001.51
2018-02-11T06:40:58.456Z,1001.52
2018-02-11T06:41:58.482Z,1001.50
2018-02-11T06:42:58.525Z,1001.51
2018-02-11T06:43:58.538Z,1001.50
2018-02-11T06:44:58.566Z,1001.54
2018-02-11T06:45:58.593Z,1001.48
2018-02-11T06:46:58.621Z,1001.52
2018-02-11T06:47:58.648Z,1001.52
2018-02-11T06:48:58.676Z,1001.53
2018-02-11T06:49:58.702Z,1001.53
2018-02-11T06:50:58.731Z,1001.53
2018-02-11T06:51:58.758Z,1001.53
2018-02-11T06:52:58.786Z,1001.52
2018-02-11T06:53:58.813Z,1001.53
2018-02-11T06:54:58.858Z,1001.51
2018-02-11T06:55:58.869Z,1001.50
2018-02-11T06:56:58.928Z,1001.51
2018-02-11T06:57:58.924Z,1001.54
2018-02-11T06:58:58.984Z,1001.49
2018-02-11T06:59:58.979Z,1001.48
2018-02-11T07:00:59.007Z,1001.50
2018-02-11T07:01:59.034Z,1001.50
2018-02-11T07:02:59.062Z,1001.49
2018-02-11T07:03:59.090Z,1001.54
2018-02-11T07:04:59.117Z,1001.53
2018-02-11T07:05:59.169Z,1001.55
2018-02-11T07:06:59.188Z,1001.51
2018-02-11T07:07:59.199Z,1001.54
2018-02-11T07:08:59.227Z,1001.51
2018-02-11T07:09:59.254Z,1001.55
2018-02-11T07:10:59.282Z,1001.54
2018-02-11T07:11:59.310Z,1001.53
2018-02-11T07:12:59.338Z,1001.51
2018-02-11T07:13:59.366Z,1001.51
2018-02-11T07:14:59.392Z,1001.50
2018-02-11T07:15:59.420Z,1001.48
2018-02-11T07:16:59.455Z,1001.46
2018-02-11T07:17:59.474Z,1001.46
2018-02-11T07:18:59.502Z,1001.43
2018-02-11T07:19:59.533Z,1001.44
2018-02-11T07:20:59.558Z,1001.42
2018-02-11T07:21:59.586Z,1001.42
2018-02-11T07:22:59.613Z,1001.43
2018-02-11T07:23:59.641Z,1001.40
2018-02-11T07:24:59.669Z,1001.43
2018-02-11T07:25:59.695Z,1001.43
2018-02-11T07:26:59.723Z,1001.42
2018-02-11T07:27:59.774Z,1001.41
2018-02-11T07:28:59.780Z,1001.40
2018-02-11T07:29:59.806Z,1001.40
2018-02-11T07:30:59.833Z,1001.44
2018-02-11T07:31:59.904Z,1001.43
2018-02-11T07:32:59.902Z,1001.40
2018-02-11T07:33:59.942Z,1001.40
2018-02-11T07:34:59.943Z,1001.39
2018-02-11T07:35:59.975Z,1001.38
2018-02-11T07:37:00.000Z,1001.40
2018-02-11T07:38:00.032Z,1001.44
2018-02-11T07:39:00.055Z,1001.43
2018-02-11T07:40:00.084Z,1001.38
2018-02-11T07:41:00.111Z,1001.41
2018-02-11T07:42:00.139Z,1001.43
2018-02-11T07:43:00.169Z,1001.38
2018-02-11T07:44:00.200Z,1001.36
2018-02-11T07:45:00.221Z,1001.39
2018-02-11T07:46:00.247Z,1001.40
2018-02-11T07:47:00.276Z,1001.33
2018-02-11T07:48:00.323Z,1001.40
2018-02-11T07:49:00.331Z,1001.37
2018-02-11T07:50:00.358Z,1001.42
2018-02-11T07:51:00.385Z,1001.42
2018-02-11T07:52:00.413Z,1001.39
2018-02-11T07:53:00.472Z,1001.42
2018-02-11T07:54:00.468Z,1001.40
2018-02-11T07:55:00.496Z,1001.39
2018-02-11T07:56:00.523Z,1001.40
2018-02-11T07:57:00.551Z,1001.40
2018-02-11T07:58:00.578Z,1001.37
2018-02-11T07:59:00.606Z,1001.37
2018-02-11T08:00:00.634Z,1001.34
2018-02-11T08:01:00.662Z,1001.33
2018-02-11T08:02:00.689Z,1001.31
2018-02-11T08:03:00.717Z,1001.30
2018-02-11T08:04:00.744Z,1001.31
2018-02-11T08:05:00.778Z,1001.27
2018-02-11T08:06:00.800Z,1001.29
2018-02-11T08:07:00.827Z,1001.27
2018-02-11T08:08:00.857Z,1001.29
2018-02-11T08:09:00.883Z,1001.27
2018-02-11T08:10:00.909Z,1001.30
2018-02-11T08:11:00.937Z,1001.28
2018-02-11T08:12:00.965Z,1001.30
2018-02-11T08:13:00.993Z,1001.27
2018-02-11T08:14:01.020Z,1001.29
2018-02-11T08:15:01.053Z,1001.28
2018-02-11T08:16:01.119Z,1001.26
2018-02-11T08:17:01.104Z,1001.29
2018-02-11T08:18:01.150Z,1001.26
2018-02-11T08:19:01.160Z,1001.21
2018-02-11T08:20:01.186Z,1001.19
2018-02-11T08:21:01.214Z,1001.22
2018-02-11T08:22:01.241Z,1001.23
2018-02-11T08:23:01.269Z,1001.25
2018-02-11T08:24:01.297Z,1001.19
2018-02-11T08:25:01.324Z,1001.20
2018-02-11T08:26:01.352Z,1001.21
2018-02-11T08:27:01.379Z,1001.19
2018-02-11T08:28:01.407Z,1001.19
2018-02-11T08:29:01.435Z,1001.21
2018-02-11T08:30:01.462Z,1001.21
2018-02-11T08:31:01.490Z,1001.19
2018-02-11T08:32:01.548Z,1001.23
2018-02-11T08:33:01.546Z,1001.18
2018-02-11T08:34:01.572Z,1001.18
2018-02-11T08:35:01.599Z,1001.12
2018-02-11T08:36:01.627Z,1001.14
2018-02-11T08:37:01.655Z,1001.12
2018-02-11T08:38:01.682Z,1001.11
2018-02-11T08:39:01.710Z,1001.09
2018-02-11T08:40:01.738Z,1001.09
2018-02-11T08:41:01.766Z,1001.11
2018-02-11T08:42:01.793Z,1001.13
2018-02-11T08:43:01.821Z,1001.09
2018-02-11T08:44:01.849Z,1001.09
2018-02-11T08:45:01.876Z,1001.08
2018-02-11T08:46:01.991Z,1001.03
2018-02-11T08:47:01.934Z,1001.04
2018-02-11T08:48:01.959Z,1001.06
2018-02-11T08:49:01.987Z,1001.05
2018-02-11T08:50:02.015Z,1001.01
2018-02-11T08:51:02.042Z,1001.00
2018-02-11T08:52:02.070Z,1000.96
2018-02-11T08:53:02.097Z,1001.00
2018-02-11T08:54:02.124Z,1000.98
2018-02-11T08:55:02.152Z,1001.02
2018-02-11T08:56:02.180Z,1000.95
2018-02-11T08:57:02.228Z,1000.97
2018-02-11T08:58:02.267Z,1000.96
2018-02-11T08:59:02.262Z,1000.98
2018-02-11T09:00:02.292Z,1000.97
2018-02-11T09:01:02.319Z,1001.00
2018-02-11T09:02:02.345Z,1001.00
2018-02-11T09:03:02.373Z,1001.02
2018-02-11T09:04:02.452Z,1001.02
2018-02-11T09:05:02.431Z,1001.00
2018-02-11T09:06:02.456Z,1000.93
2018-02-11T09:07:02.519Z,1000.96
2018-02-11T09:08:02.544Z,1000.87
2018-02-11T09:09:02.540Z,1000.91
2018-02-11T09:10:02.568Z,1000.86
2018-02-11T09:11:02.594Z,1000.87
2018-02-11T09:12:02.623Z,1000.88
2018-02-11T09:13:02.650Z,1000.83
2018-02-11T09:14:02.681Z,1000.86
2018-02-11T09:15:02.705Z,1000.91
2018-02-11T09:16:02.738Z,1000.87
2018-02-11T09:17:02.760Z,1000.87
2018-02-11T09:18:02.788Z,1000.88
2018-02-11T09:19:02.816Z,1000.84
2018-02-11T09:20:02.844Z,1000.88
2018-02-11T09:21:02.875Z,1000.83
2018-02-11T09:22:02.898Z,1000.85
2018-02-11T09:23:02.926Z,1000.84
2018-02-11T09:24:02.955Z,1000.83
2018-02-11T09:25:02.988Z,1000.79
2018-02-11T09:26:03.008Z,1000.76
2018-02-11T09:27:03.036Z,1000.76
2018-02-11T09:28:03.064Z,1000.74
2018-02-11T09:29:03.092Z,1000.73
2018-02-11T09:30:03.119Z,1000.76
2018-02-11T09:31:03.192Z,1000.71
2018-02-11T09:32:03.177Z,1000.72
2018-02-11T09:33:03.202Z,1000.69
2018-02-11T09:34:03.229Z,1000.74
2018-02-11T09:35:03.257Z,1000.70
2018-02-11T09:36:03.285Z,1000.63
2018-02-11T09:37:03.313Z,1000.66
2018-02-11T09:38:03.340Z,1000.68
2018-02-11T09:39:03.373Z,1000.66
2018-02-11T09:40:03.396Z,1000.65
2018-02-11T09:41:03.423Z,1000.62
2018-02-11T09:42:03.452Z,1000.61
2018-02-11T09:43:03.478Z,1000.60
2018-02-11T09:44:03.506Z,1000.58
2018-02-11T09:45:03.569Z,1000.57
2018-02-11T09:46:03.562Z,1000.59
2018-02-11T09:47:03.590Z,1000.58
2018-02-11T09:48:03.617Z,1000.60
2018-02-11T09:49:03.646Z,1000.58
2018-02-11T09:50:03.672Z,1000.57
2018-02-11T09:51:03.700Z,1000.58
2018-02-11T09:52:03.727Z,1000.57
2018-02-11T09:53:03.756Z,1000.57
2018-02-11T09:54:03.783Z,1000.54
2018-02-11T09:55:03.811Z,1000.54
2018-02-11T09:56:03.839Z,1000.54
2018-02-11T09:57:03.867Z,1000.56
2018-02-11T09:58:03.896Z,1000.56
2018-02-11T09:59:03.921Z,1000.51
2018-02-11T10:00:03.961Z,1000.59
2018-02-11T10:01:03.978Z,1000.53
2018-02-11T10:02:04.005Z,1000.58
2018-02-11T10:03:04.032Z,1000.52
2018-02-11T10:04:04.060Z,1000.51
2018-02-11T10:05:04.089Z,1000.54
2018-02-11T10:06:04.116Z,1000.50
2018-02-11T10:07:04.144Z,1000.52
2018-02-11T10:08:04.171Z,1000.51
2018-02-11T10:09:04.199Z,1000.47
2018-02-11T10:10:04.274Z,1000.49
2018-02-11T10:11:04.254Z,1000.47
2018-02-11T10:12:04.282Z,1000.44
2018-02-11T10:13:04.312Z,1000.45
2018-02-11T10:14:04.337Z,1000.46
2018-02-11T10:15:04.365Z,1000.45
2018-02-11T10:16:04.394Z,1000.41
2018-02-11T10:17:04.420Z,1000.42
2018-02-11T10:18:04.448Z,1000.40
2018-02-11T10:19:04.476Z,1000.40
2018-02-11T10:20:04.518Z,1000.41
2018-02-11T10:21:04.532Z,1000.38
2018-02-11T10:22:04.560Z,1000.37
2018-02-11T10:23:04.587Z,1000.41
2018-02-11T10:24:04.614Z,1000.39
2018-02-11T10:25:04.642Z,1000.40
2018-02-11T10:26:04.678Z,1000.41
2018-02-11T10:27:04.697Z,1000.42
2018-02-11T10:28:04.725Z,1000.40
2018-02-11T10:29:04.753Z,1000.45
2018-02-11T10:30:04.780Z,1000.40
2018-02-11T10:31:04.808Z,1000.42
2018-02-11T10:32:04.836Z,1000.37
2018-02-11T10:33:04.864Z,1000.38
2018-02-11T10:34:04.891Z,1000.40
2018-02-11T10:35:04.919Z,1000.42
2018-02-11T10:36:04.947Z,1000.45
2018-02-11T10:37:04.975Z,1000.38
2018-02-11T10:38:05.002Z,1000.37
2018-02-11T10:39:05.030Z,1000.34
2018-02-11T10:40:05.064Z,1000.35
2018-02-11T10:41:05.085Z,1000.34
2018-02-11T10:42:05.112Z,1000.33
2018-02-11T10:43:05.140Z,1000.32
2018-02-11T10:44:05.170Z,1000.31
2018-02-11T10:45:05.197Z,1000.28
2018-02-11T10:46:05.224Z,1000.29
2018-02-11T10:47:05.252Z,1000.29
2018-02-11T10:48:05.279Z,1000.30
2018-02-11T10:49:05.307Z,1000.30
2018-02-11T10:50:05.365Z,1000.29
2018-02-11T10:51:05.363Z,1000.28
2018-02-11T10:52:05.405Z,1000.26
2018-02-11T10:53:05.418Z,1000.27
2018-02-11T10:54:05.444Z,1000.26
2018-02-11T10:55:05.503Z,1000.24
2018-02-11T10:56:05.501Z,1000.25
2018-02-11T10:57:05.529Z,1000.21
2018-02-11T10:58:05.556Z,1000.23
2018-02-11T10:59:05.583Z,1000.22
2018-02-11T11:00:05.611Z,1000.17
2018-02-11T11:01:05.642Z,1000.25
2018-02-11T11:02:05.672Z,1000.21
2018-02-11T11:03:05.694Z,1000.17
2018-02-11T11:04:05.722Z,1000.16
2018-02-11T11:05:05.755Z,1000.14
2018-02-11T11:06:05.780Z,1000.12
2018-02-11T11:07:05.805Z,1000.14
2018-02-11T11:08:05.835Z,1000.11
2018-02-11T11:09:05.861Z,1000.13
2018-02-11T11:10:05.888Z,1000.12
2018-02-11T11:11:05.915Z,1000.11
2018-02-11T11:12:05.945Z,1000.09
2018-02-11T11:13:06.006Z,1000.08
2018-02-11T11:14:05.999Z,1000.08
2018-02-11T11:15:06.027Z,1000.03
2018-02-11T11:16:06.054Z,1000.03
2018-02-11T11:17:06.082Z,1000.01
2018-02-11T11:18:06.109Z,1000.03
2018-02-11T11:19:06.137Z,999.98
2018-02-11T11:20:06.165Z,1000.00
2018-02-11T11:21:06.192Z,1000.01
2018-02-11T11:22:06.220Z,1000.05
2018-02-11T11:23:06.248Z,1000.01
2018-02-11T11:24:06.277Z,1000.01
2018-02-11T11:25:06.304Z,1000.08
2018-02-11T11:26:06.330Z,1000.07
2018-02-11T11:27:06.359Z,1000.06
2018-02-11T11:28:06.387Z,1000.08
2018-02-11T11:29:06.415Z,1000.06
2018-02-11T11:30:06.441Z,1000.03
2018-02-11T11:31:06.470Z,1000.05
2018-02-11T11:32:06.497Z,1000.00
2018-02-11T11:33:06.525Z,1000.01
2018-02-11T11:34:06.552Z,999.97
2018-02-11T11:35:06.580Z,999.99
2018-02-11T11:36:06.607Z,999.98
2018-02-11T11:37:06.635Z,1000.00
2018-02-11T11:38:06.662Z,999.99
2018-02-11T11:39:06.693Z,999.97
2018-02-11T11:40:06.719Z,999.98
2018-02-11T11:41:06.747Z,999.93
2018-02-11T11:42:06.773Z,999.95
2018-02-11T11:43:06.801Z,999.93
2018-02-11T11:44:06.830Z,999.93
2018-02-11T11:45:06.856Z,999.90
2018-02-11T11:46:06.884Z,999.90
2018-02-11T11:47:06.947Z,999.90
2018-02-11T11:48:06.940Z,999.90
2018-02-11T11:49:06.967Z,999.92
2018-02-11T11:50:06.995Z,999.94
2018-02-11T11:51:07.024Z,999.91
2018-02-11T11:52:07.050Z,999.88
2018-02-11T11:53:07.078Z,999.91
2018-02-11T11:54:07.105Z,999.90
2018-02-11T11:55:07.133Z,999.85
2018-02-11T11:56:07.161Z,999.86
2018-02-11T11:57:07.189Z,999.90
2018-02-11T11:58:07.216Z,999.87
2018-02-11T11:59:07.244Z,999.88
2018-02-11T12:00:07.280Z,999.87
2018-02-11T12:01:07.331Z,999.83
2018-02-11T12:02:07.326Z,999.83
2018-02-11T12:03:07.355Z,999.87
2018-02-11T12:04:07.382Z,999.86
2018-02-11T12:05:07.410Z,999.85
2018-02-11T12:06:07.437Z,999.82
2018-02-11T12:07:07.473Z,999.84